createdAt,value
2019-04-10T00:02:09.060Z,7.33
2019-04-10T00:04:39.078Z,7.07
2019-04-10T00:07:14.913Z,6.93
2019-04-10T00:09:41.292Z,6.67
2019-04-10T00:12:11.708Z,7.03
2019-04-10T00:14:43.716Z,7.40
2019-04-10T00:17:13.353Z,6.53
2019-04-10T00:19:43.630Z,6.70
2019-04-10T00:22:13.934Z,6.27
2019-04-10T00:24:44.204Z,6.80
2019-04-10T00:27:14.570Z,6.67
2019-04-10T00:29:44.711Z,6.17
2019-04-10T00:32:14.636Z,6.77
2019-04-10T00:34:47.690Z,6.70
2019-04-10T00:37:23.656Z,6.37
2019-04-10T00:39:48.858Z,6.67
2019-04-10T00:42:18.952Z,6.63
2019-04-10T00:44:49.878Z,6.87
2019-04-10T00:47:19.991Z,6.97
2019-04-10T00:49:50.323Z,6.73
2019-04-10T00:52:20.128Z,6.87
2019-04-10T00:54:49.848Z,6.83
2019-04-10T00:57:19.557Z,7.20
2019-04-10T00:59:49.268Z,7.17
2019-04-10T01:02:18.919Z,6.73
2019-04-10T01:04:50.809Z,6.93
2019-04-10T01:07:32.684Z,6.13
2019-04-10T01:09:52.166Z,6.27
2019-04-10T01:13:16.667Z,7.07
2019-04-10T01:15:49.118Z,6.73
2019-04-10T01:18:19.206Z,6.70
2019-04-10T01:20:51.706Z,6.93
2019-04-10T01:23:22.501Z,7.60
2019-04-10T01:25:52.439Z,7.53
2019-04-10T01:28:22.730Z,7.57
2019-04-10T01:30:53.403Z,6.73
2019-04-10T01:33:23.089Z,7.20
2019-04-10T01:35:52.767Z,8.00
2019-04-10T01:38:22.520Z,8.30
2019-04-10T01:40:55.377Z,8.57
2019-04-10T01:43:25.291Z,7.40
2019-04-10T01:45:54.977Z,8.07
2019-04-10T01:48:24.658Z,10.10
2019-04-10T01:50:54.873Z,9.50
2019-04-10T01:53:25.889Z,8.67
2019-04-10T01:55:55.985Z,8.50
2019-04-10T01:58:25.662Z,8.70
2019-04-10T02:01:32.593Z,8.30
2019-04-10T02:04:02.638Z,9.17
2019-04-10T02:06:33.543Z,8.60
2019-04-10T02:09:04.544Z,8.67
2019-04-10T02:11:34.357Z,10.13
2019-04-10T02:14:04.014Z,9.70
2019-04-10T02:16:34.664Z,10.10
2019-04-10T02:19:04.398Z,9.40
2019-04-10T02:21:34.099Z,10.80
2019-04-10T02:24:04.936Z,10.63
2019-04-10T02:26:35.622Z,10.23
2019-04-10T02:29:05.668Z,11.70
2019-04-10T02:31:36.588Z,11.03
2019-04-10T02:34:07.590Z,11.70
2019-04-10T02:36:38.577Z,11.67
2019-04-10T02:39:20.529Z,11.63
2019-04-10T02:41:41.769Z,11.53
2019-04-10T02:44:12.214Z,11.13
2019-04-10T02:46:42.233Z,12.17
2019-04-10T02:49:12.417Z,13.00
2019-04-10T02:51:45.162Z,11.53
2019-04-10T02:54:15.449Z,11.10
2019-04-10T02:56:46.342Z,11.33
2019-04-10T02:59:16.855Z,12.53
2019-04-10T03:01:47.426Z,11.70
2019-04-10T03:04:18.356Z,12.00
2019-04-10T03:06:48.213Z,23.13
2019-04-10T03:09:32.211Z,41.40
2019-04-10T03:11:57.397Z,25.90
2019-04-10T03:14:28.469Z,27.97
2019-04-10T03:16:59.691Z,17.63
2019-04-10T03:19:29.880Z,13.37
2019-04-10T03:21:59.716Z,12.47
2019-04-10T03:24:29.547Z,13.40
2019-04-10T03:27:01.661Z,12.73
2019-04-10T03:29:33.132Z,12.90
2019-04-10T03:32:23.625Z,22.47
2019-04-10T03:34:56.522Z,18.30
2019-04-10T03:37:26.512Z,23.07
2019-04-10T03:39:57.284Z,24.07
2019-04-10T03:42:26.983Z,20.40
2019-04-10T03:44:56.946Z,12.70
2019-04-10T03:47:27.188Z,20.37
2019-04-10T03:49:58.205Z,23.17
2019-04-10T03:52:27.848Z,15.07
2019-04-10T03:54:58.607Z,17.33
2019-04-10T03:57:28.847Z,17.10
2019-04-10T03:59:58.988Z,12.30
2019-04-10T04:02:29.497Z,13.50
2019-04-10T04:04:59.287Z,13.03
2019-04-10T04:07:28.970Z,12.90
2019-04-10T04:09:58.723Z,13.17
2019-04-10T04:12:28.792Z,11.83
2019-04-10T04:14:59.121Z,11.80
2019-04-10T04:17:30.366Z,11.53
2019-04-10T04:20:00.160Z,12.47
2019-04-10T04:22:30.597Z,11.30
2019-04-10T04:25:00.543Z,13.67
2019-04-10T04:27:30.331Z,15.03
2019-04-10T04:29:59.974Z,12.10
2019-04-10T04:32:29.672Z,14.57
2019-04-10T04:34:59.848Z,13.33
2019-04-10T04:37:30.143Z,11.67
2019-04-10T04:40:00.473Z,10.47
2019-04-10T04:42:30.689Z,10.00
2019-04-10T04:45:00.814Z,9.80
2019-04-10T04:47:31.008Z,10.00
2019-04-10T04:50:01.437Z,9.93
2019-04-10T04:52:58.801Z,9.83
2019-04-10T04:55:28.972Z,9.57
2019-04-10T04:57:59.837Z,10.60
2019-04-10T05:00:29.886Z,9.27
2019-04-10T05:03:01.949Z,8.80
2019-04-10T05:05:31.660Z,9.40
2019-04-10T05:08:04.284Z,9.23
2019-04-10T05:10:33.536Z,8.90
2019-04-10T05:13:04.047Z,8.70
2019-04-10T05:15:35.195Z,9.00
2019-04-10T05:18:06.167Z,10.00
2019-04-10T05:20:43.904Z,8.87
2019-04-10T05:23:10.212Z,9.00
2019-04-10T05:25:41.402Z,9.37
2019-04-10T05:28:13.683Z,9.57
2019-04-10T05:30:43.403Z,8.33
2019-04-10T05:33:14.132Z,9.77
2019-04-10T05:35:44.087Z,9.17
2019-04-10T05:38:13.774Z,9.37
2019-04-10T05:40:44.268Z,9.30
2019-04-10T05:43:14.869Z,9.07
2019-04-10T05:45:44.520Z,9.50
2019-04-10T05:48:15.255Z,9.30
2019-04-10T05:50:54.048Z,9.80
2019-04-10T05:53:16.384Z,9.23
2019-04-10T05:55:47.230Z,10.20
2019-04-10T05:58:17.503Z,9.30
2019-04-10T06:00:47.568Z,9.27
2019-04-10T06:03:17.284Z,9.60
2019-04-10T06:05:46.941Z,10.23
2019-04-10T06:08:16.639Z,9.57
2019-04-10T06:10:46.420Z,9.33
2019-04-10T06:13:19.666Z,9.47
2019-04-10T06:15:50.914Z,9.33
2019-04-10T06:18:20.976Z,8.67
2019-04-10T06:20:50.684Z,8.60
2019-04-10T06:23:20.434Z,8.90
2019-04-10T06:25:50.098Z,9.13
2019-04-10T06:28:19.757Z,8.77
2019-04-10T06:30:50.320Z,9.20
2019-04-10T06:33:24.162Z,9.00
2019-04-10T06:35:55.152Z,8.90
2019-04-10T06:38:26.468Z,8.03
2019-04-10T06:40:56.311Z,8.47
2019-04-10T06:43:25.999Z,7.53
2019-04-10T06:45:55.853Z,7.00
2019-04-10T06:48:25.949Z,7.00
2019-04-10T06:50:55.993Z,7.80
2019-04-10T06:53:28.949Z,7.23
2019-04-10T06:55:58.939Z,7.30
2019-04-10T06:58:28.692Z,6.30
2019-04-10T07:01:01.303Z,7.50
2019-04-10T07:03:46.943Z,6.67
2019-04-10T07:06:09.599Z,7.20
2019-04-10T07:08:33.925Z,8.80
2019-04-10T07:11:09.037Z,6.37
2019-04-10T07:13:39.491Z,7.80
2019-04-10T07:16:09.488Z,8.07
2019-04-10T07:18:40.170Z,6.50
2019-04-10T07:21:12.494Z,6.73
2019-04-10T07:23:42.829Z,6.57
2019-04-10T07:26:18.456Z,9.03
2019-04-10T07:28:46.378Z,10.60
2019-04-10T07:31:15.815Z,8.53
2019-04-10T07:33:50.040Z,6.87
2019-04-10T07:36:16.816Z,4.63
2019-04-10T07:38:46.862Z,5.83
2019-04-10T07:41:21.352Z,5.33
2019-04-10T07:43:52.834Z,6.53
2019-04-10T07:46:24.103Z,6.93
2019-04-10T07:48:54.542Z,5.60
2019-04-10T07:51:25.510Z,5.90
2019-04-10T07:53:55.582Z,6.07
2019-04-10T07:56:26.663Z,5.93
2019-04-10T07:58:56.765Z,5.93
2019-04-10T08:01:27.323Z,5.50
2019-04-10T08:03:57.628Z,5.17
2019-04-10T08:06:28.440Z,4.97
2019-04-10T08:08:59.069Z,5.47
2019-04-10T08:11:29.647Z,4.87
2019-04-10T08:13:59.659Z,5.27
2019-04-10T08:16:29.430Z,5.27
2019-04-10T08:19:00.505Z,5.17
2019-04-10T08:21:30.269Z,5.30
2019-04-10T08:24:00.437Z,5.23
2019-04-10T08:26:30.402Z,5.90
2019-04-10T08:29:01.519Z,5.10
2019-04-10T08:31:31.386Z,5.20
2019-04-10T08:34:01.195Z,5.73
2019-04-10T08:36:31.862Z,4.83
2019-04-10T08:39:02.596Z,5.47
2019-04-10T08:41:33.025Z,5.13
2019-04-10T08:44:02.762Z,4.73
2019-04-10T08:46:33.601Z,4.70
2019-04-10T08:49:03.559Z,4.67
2019-04-10T08:51:33.823Z,5.10
2019-04-10T08:54:03.811Z,4.80
2019-04-10T08:56:33.527Z,4.67
2019-04-10T08:59:03.442Z,4.97
2019-04-10T09:01:33.550Z,5.63
2019-04-10T09:04:03.672Z,6.20
2019-04-10T09:06:33.614Z,5.17
2019-04-10T09:09:03.559Z,5.67
2019-04-10T09:11:34.018Z,5.30
2019-04-10T09:14:03.812Z,4.83
2019-04-10T09:16:34.291Z,5.87
2019-04-10T09:19:05.479Z,5.40
2019-04-10T09:21:35.295Z,5.43
2019-04-10T09:24:05.071Z,5.13
2019-04-10T09:26:38.862Z,5.03
2019-04-10T09:29:08.942Z,5.00
2019-04-10T09:31:39.928Z,5.00
2019-04-10T09:34:10.261Z,4.77
2019-04-10T09:36:40.016Z,4.90
2019-04-10T09:39:09.955Z,5.07
2019-04-10T09:41:39.653Z,4.60
2019-04-10T09:44:10.235Z,4.63
2019-04-10T09:46:40.798Z,5.37
2019-04-10T09:49:10.713Z,4.87
2019-04-10T09:51:40.474Z,5.20
2019-04-10T09:54:10.164Z,5.60
2019-04-10T09:56:39.850Z,5.60
2019-04-10T09:59:09.683Z,5.70
2019-04-10T10:01:40.096Z,5.07
2019-04-10T10:04:13.260Z,5.23
2019-04-10T10:06:45.285Z,6.13
2019-04-10T10:09:15.374Z,6.13
2019-04-10T10:11:45.055Z,5.33
2019-04-10T10:14:14.959Z,5.37
2019-04-10T10:16:44.963Z,5.60
2019-04-10T10:19:14.687Z,6.00
2019-04-10T10:21:44.901Z,5.70
2019-04-10T10:24:14.734Z,5.47
2019-04-10T10:26:46.485Z,5.40
2019-04-10T10:29:16.176Z,5.37
2019-04-10T10:31:46.751Z,5.37
2019-04-10T10:34:17.221Z,5.60
2019-04-10T10:36:48.922Z,5.47
2019-04-10T10:39:21.102Z,5.67
2019-04-10T10:41:51.151Z,5.50
2019-04-10T10:44:21.845Z,5.53
2019-04-10T10:46:51.656Z,5.27
2019-04-10T10:49:21.401Z,5.63
2019-04-10T10:51:51.161Z,5.13
2019-04-10T10:54:21.100Z,5.20
2019-04-10T10:56:50.997Z,5.20
2019-04-10T10:59:21.822Z,5.07
2019-04-10T11:01:51.913Z,5.37
2019-04-10T11:04:23.163Z,5.13
2019-04-10T11:06:59.656Z,5.20
2019-04-10T11:09:24.357Z,5.23
2019-04-10T11:11:54.016Z,4.60
2019-04-10T11:14:23.736Z,5.20
2019-04-10T11:16:53.678Z,5.00
2019-04-10T11:19:23.694Z,5.07
2019-04-10T11:21:54.449Z,5.13
2019-04-10T11:24:25.469Z,5.17
2019-04-10T11:26:55.241Z,5.00
2019-04-10T11:29:24.907Z,5.03
2019-04-10T11:31:55.603Z,4.90
2019-04-10T11:34:26.505Z,5.00
2019-04-10T11:37:18.105Z,4.23
2019-04-10T11:39:31.014Z,4.97
2019-04-10T11:42:01.827Z,4.87
2019-04-10T11:44:33.568Z,4.90
2019-04-10T11:47:05.577Z,4.83
2019-04-10T11:49:36.831Z,4.37
2019-04-10T11:52:06.463Z,4.70
2019-04-10T11:54:41.105Z,4.90
2019-04-10T11:57:07.672Z,5.00
2019-04-10T11:59:38.988Z,4.40
2019-04-10T12:02:10.079Z,4.73
2019-04-10T12:04:50.397Z,4.30
2019-04-10T12:07:48.089Z,4.43
2019-04-10T12:12:14.340Z,4.43
2019-04-10T12:14:44.308Z,4.97
2019-04-10T12:17:13.975Z,4.33
2019-04-10T12:19:44.540Z,4.40
2019-04-10T12:22:14.416Z,4.60
2019-04-10T12:24:44.238Z,4.60
2019-04-10T12:27:14.686Z,5.00
2019-04-10T12:29:44.712Z,4.83
2019-04-10T12:32:14.600Z,4.37
2019-04-10T12:34:44.625Z,4.73
2019-04-10T12:37:15.350Z,5.23
2019-04-10T12:39:45.435Z,5.03
2019-04-10T12:42:16.180Z,5.10
2019-04-10T12:44:49.125Z,4.93
2019-04-10T12:47:20.003Z,4.97
2019-04-10T12:49:51.904Z,5.47
2019-04-10T12:52:22.747Z,5.37
2019-04-10T12:54:53.659Z,4.80
2019-04-10T12:57:23.371Z,5.50
2019-04-10T12:59:59.463Z,5.13
2019-04-10T13:02:24.405Z,5.23
2019-04-10T13:04:54.609Z,5.70
2019-04-10T13:07:25.087Z,4.97
2019-04-10T13:09:54.745Z,5.90
2019-04-10T13:12:25.053Z,5.40
2019-04-10T13:14:54.961Z,5.30
2019-04-10T13:17:24.839Z,5.97
2019-04-10T13:19:55.631Z,6.10
2019-04-10T13:22:26.418Z,5.70
2019-04-10T13:24:57.647Z,5.60
2019-04-10T13:27:28.597Z,5.60
2019-04-10T13:29:58.677Z,4.83
2019-04-10T13:32:28.386Z,5.87
2019-04-10T13:34:58.046Z,4.87
2019-04-10T13:37:28.406Z,5.97
2019-04-10T13:39:59.326Z,5.67
2019-04-10T13:42:30.219Z,5.77
2019-04-10T13:45:00.217Z,5.27
2019-04-10T13:47:30.454Z,5.90
2019-04-10T13:50:00.236Z,6.00
2019-04-10T13:52:30.086Z,6.70
2019-04-10T13:54:59.797Z,5.97
2019-04-10T13:57:30.579Z,5.70
2019-04-10T14:00:00.258Z,5.67
2019-04-10T14:02:34.369Z,5.53
2019-04-10T14:05:07.288Z,6.10
2019-04-10T14:07:37.122Z,5.60
2019-04-10T14:10:08.909Z,5.90
2019-04-10T14:12:38.960Z,6.00
2019-04-10T14:15:09.835Z,6.10
2019-04-10T14:17:39.974Z,5.67
2019-04-10T14:20:11.766Z,6.00
2019-04-10T14:22:50.252Z,6.37
2019-04-10T14:25:28.503Z,5.87
2019-04-10T14:27:58.214Z,6.20
2019-04-10T14:30:36.294Z,5.60
2019-04-10T14:33:07.149Z,5.90
2019-04-10T14:35:36.904Z,6.23
2019-04-10T14:38:06.767Z,5.97
2019-04-10T14:40:36.539Z,5.80
2019-04-10T14:43:07.265Z,5.77
2019-04-10T14:45:37.414Z,6.13
2019-04-10T14:48:07.880Z,6.07
2019-04-10T14:50:37.919Z,6.33
2019-04-10T14:53:07.690Z,6.80
2019-04-10T14:55:37.691Z,5.87
2019-04-10T14:58:19.623Z,5.67
2019-04-10T15:00:52.744Z,6.07
2019-04-10T15:03:23.147Z,6.10
2019-04-10T15:05:57.106Z,6.87
2019-04-10T15:08:27.958Z,6.60
2019-04-10T15:10:58.276Z,7.10
2019-04-10T15:13:28.300Z,6.90
2019-04-10T15:15:58.718Z,6.40
2019-04-10T15:18:28.924Z,6.47
2019-04-10T15:20:58.646Z,7.43
2019-04-10T15:23:29.516Z,7.07
2019-04-10T15:25:59.630Z,7.00
2019-04-10T15:28:29.741Z,6.97
2019-04-10T15:31:00.027Z,7.27
2019-04-10T15:33:30.098Z,11.10
2019-04-10T15:35:59.907Z,8.93
2019-04-10T15:38:30.353Z,16.40
2019-04-10T15:41:00.909Z,17.37
2019-04-10T15:43:30.990Z,30.93
2019-04-10T15:46:00.949Z,8.70
2019-04-10T15:48:30.684Z,16.23
2019-04-10T15:51:00.403Z,10.63
2019-04-10T15:53:30.090Z,8.27
2019-04-10T15:55:59.782Z,19.73
2019-04-10T15:58:29.461Z,50.03
2019-04-10T16:00:59.436Z,104.50
2019-04-10T16:03:30.352Z,54.50
2019-04-10T16:06:00.235Z,14.17
2019-04-10T16:08:32.280Z,12.80
2019-04-10T16:11:19.597Z,17.77
2019-04-10T16:13:52.664Z,8.57
2019-04-10T16:16:48.811Z,7.27
2019-04-10T16:19:38.714Z,8.33
2019-04-10T16:22:36.428Z,8.70
2019-04-10T16:25:29.960Z,7.33
2019-04-10T16:28:02.090Z,8.83
2019-04-10T16:30:32.988Z,8.30
2019-04-10T16:33:05.331Z,9.90
2019-04-10T16:35:36.575Z,15.30
2019-04-10T16:38:06.934Z,10.00
2019-04-10T16:40:38.267Z,11.20
2019-04-10T16:43:08.220Z,10.47
2019-04-10T16:45:38.533Z,8.33
2019-04-10T16:48:08.730Z,9.67
2019-04-10T16:50:38.849Z,14.07
2019-04-10T16:53:09.649Z,12.73
2019-04-10T16:55:39.595Z,10.50
2019-04-10T16:58:09.628Z,11.50
2019-04-10T17:00:39.777Z,15.13
2019-04-10T17:03:09.687Z,14.47
2019-04-10T17:05:39.781Z,18.63
2019-04-10T17:08:09.839Z,16.97
2019-04-10T17:10:40.676Z,13.13
2019-04-10T17:13:10.762Z,13.70
2019-04-10T17:15:41.884Z,15.30
2019-04-10T17:18:11.811Z,12.87
2019-04-10T17:20:41.628Z,13.50
2019-04-10T17:23:12.372Z,14.13
2019-04-10T17:25:42.633Z,14.23
2019-04-10T17:28:12.490Z,16.17
2019-04-10T17:30:42.369Z,13.50
2019-04-10T17:33:13.171Z,13.83
2019-04-10T17:35:43.472Z,15.20
2019-04-10T17:38:14.209Z,16.37
2019-04-10T17:40:50.509Z,20.53
2019-04-10T17:43:16.853Z,29.13
2019-04-10T17:45:46.929Z,17.97
2019-04-10T17:48:19.793Z,34.07
2019-04-10T17:50:50.032Z,17.63
2019-04-10T17:53:21.095Z,20.13
2019-04-10T17:55:51.601Z,22.40
2019-04-10T17:58:21.482Z,22.20
2019-04-10T18:00:53.661Z,33.43
2019-04-10T18:03:39.566Z,28.73
2019-04-10T18:06:01.381Z,21.90
2019-04-10T18:08:32.648Z,14.83
2019-04-10T18:11:03.684Z,17.10
2019-04-10T18:13:34.156Z,23.90
2019-04-10T18:16:04.341Z,16.53
2019-04-10T18:18:34.125Z,18.47
2019-04-10T18:21:04.456Z,15.27
2019-04-10T18:23:35.617Z,19.17
2019-04-10T18:26:06.740Z,20.80
2019-04-10T18:28:37.907Z,22.07
2019-04-10T18:31:08.313Z,16.80
2019-04-10T18:33:38.461Z,17.20
2019-04-10T18:36:08.396Z,19.60
2019-04-10T18:38:38.102Z,39.27
2019-04-10T18:41:09.038Z,27.67
2019-04-10T18:43:38.923Z,21.33
2019-04-10T18:46:14.337Z,23.20
2019-04-10T18:48:40.860Z,17.83
2019-04-10T18:51:12.500Z,21.23
2019-04-10T18:53:43.843Z,19.23
2019-04-10T18:56:16.737Z,20.90
2019-04-10T18:58:58.392Z,20.53
2019-04-10T19:01:50.199Z,52.57
2019-04-10T19:04:28.055Z,21.53
2019-04-10T19:06:59.052Z,19.07
2019-04-10T19:09:36.680Z,22.00
2019-04-10T19:12:06.914Z,22.87
2019-04-10T19:14:37.202Z,17.90
2019-04-10T19:17:09.344Z,33.07
2019-04-10T19:19:42.176Z,18.37
2019-04-10T19:22:13.112Z,21.83
2019-04-10T19:24:44.095Z,34.20
2019-04-10T19:27:13.950Z,28.77
2019-04-10T19:29:43.612Z,23.33
2019-04-10T19:32:22.605Z,20.97
2019-04-10T19:34:52.420Z,23.00
2019-04-10T19:37:22.871Z,35.67
2019-04-10T19:39:54.224Z,41.83
2019-04-10T19:42:25.019Z,32.03
2019-04-10T19:44:55.238Z,33.70
2019-04-10T19:47:26.257Z,35.70
2019-04-10T19:49:57.124Z,32.13
2019-04-10T19:52:26.994Z,31.07
2019-04-10T19:54:57.586Z,32.23
2019-04-10T19:57:27.490Z,34.53
2019-04-10T19:59:57.845Z,29.63
2019-04-10T20:02:27.890Z,24.17
2019-04-10T20:04:58.982Z,24.57
2019-04-10T20:07:29.038Z,20.73
2019-04-10T20:09:59.017Z,20.60
2019-04-10T20:12:28.843Z,22.13
2019-04-10T20:14:59.615Z,20.10
2019-04-10T20:17:30.254Z,18.70
2019-04-10T20:20:00.295Z,22.07
2019-04-10T20:22:30.812Z,18.77
2019-04-10T20:25:02.009Z,21.00
2019-04-10T20:27:32.097Z,17.47
2019-04-10T20:30:01.864Z,19.73
2019-04-10T20:32:32.250Z,18.10
2019-04-10T20:35:02.462Z,16.37
2019-04-10T20:37:32.119Z,15.50
2019-04-10T20:40:01.858Z,16.17
2019-04-10T20:42:32.150Z,15.77
2019-04-10T20:45:02.459Z,14.10
2019-04-10T20:47:35.061Z,14.40
2019-04-10T20:50:05.838Z,13.73
2019-04-10T20:52:37.042Z,14.30
2019-04-10T20:55:07.220Z,19.53
2019-04-10T20:57:37.504Z,16.10
2019-04-10T21:00:11.933Z,19.90
2019-04-10T21:02:42.560Z,19.43
2019-04-10T21:05:14.999Z,22.57
2019-04-10T21:07:44.052Z,25.60
2019-04-10T21:10:14.907Z,21.00
2019-04-10T21:12:45.078Z,14.63
2019-04-10T21:15:14.735Z,21.70
2019-04-10T21:17:44.439Z,24.50
2019-04-10T21:20:14.378Z,18.90
2019-04-10T21:22:45.150Z,13.67
2019-04-10T21:25:14.977Z,17.53
2019-04-10T21:27:47.580Z,16.63
2019-04-10T21:30:40.266Z,16.27
2019-04-10T21:33:44.940Z,12.13
2019-04-10T21:36:16.212Z,10.77
2019-04-10T21:38:48.169Z,13.33
2019-04-10T21:41:17.851Z,12.10
2019-04-10T21:43:47.527Z,11.93
2019-04-10T21:46:17.289Z,11.40
2019-04-10T21:48:47.024Z,12.47
2019-04-10T21:51:17.062Z,12.30
2019-04-10T21:53:47.843Z,12.27
2019-04-10T21:56:18.044Z,12.67
2019-04-10T21:58:48.534Z,13.47
2019-04-10T22:01:19.083Z,13.83
2019-04-10T22:03:49.926Z,14.03
2019-04-10T22:06:43.184Z,13.37
2019-04-10T22:09:30.592Z,14.20
2019-04-10T22:12:02.087Z,15.50
2019-04-10T22:14:31.787Z,16.87
2019-04-10T22:17:02.363Z,15.70
2019-04-10T22:19:32.287Z,15.97
2019-04-10T22:22:04.212Z,15.97
2019-04-10T22:24:34.125Z,16.80
2019-04-10T22:27:05.108Z,16.67
2019-04-10T22:29:35.452Z,18.67
2019-04-10T22:32:06.297Z,22.93
2019-04-10T22:34:36.378Z,17.40
2019-04-10T22:37:06.382Z,18.00
2019-04-10T22:39:36.043Z,18.10
2019-04-10T22:42:07.542Z,17.97
2019-04-10T22:44:42.538Z,16.30
2019-04-10T22:47:09.201Z,15.67
2019-04-10T22:49:39.321Z,17.40
2019-04-10T22:52:09.386Z,16.77
2019-04-10T22:54:40.187Z,15.83
2019-04-10T22:57:10.479Z,16.50
2019-04-10T22:59:40.442Z,18.67
2019-04-10T23:02:12.066Z,17.87
2019-04-10T23:04:41.463Z,16.67
2019-04-10T23:07:11.547Z,16.60
2019-04-10T23:09:41.538Z,15.73
2019-04-10T23:12:11.247Z,16.10
2019-04-10T23:14:40.960Z,16.83
2019-04-10T23:17:11.029Z,16.27
2019-04-10T23:19:40.771Z,16.33
2019-04-10T23:22:10.768Z,15.73
2019-04-10T23:24:41.419Z,16.43
2019-04-10T23:27:11.474Z,16.80
2019-04-10T23:29:41.464Z,15.37
2019-04-10T23:32:11.226Z,14.93
2019-04-10T23:34:41.037Z,15.17
2019-04-10T23:37:10.970Z,16.40
2019-04-10T23:39:40.667Z,16.23
2019-04-10T23:42:10.837Z,14.63
2019-04-10T23:44:40.770Z,15.20
2019-04-10T23:47:11.746Z,16.20
2019-04-10T23:49:41.858Z,15.97
2019-04-10T23:52:11.744Z,15.20
2019-04-10T23:54:41.891Z,14.17
2019-04-10T23:57:11.661Z,14.80
2019-04-10T23:59:42.528Z,15.30
